Aeroporto :







RITROVATECI SU...

 
LOGIN :

Iscrizione | Disclaimer

   EN    FR    IT 

 









Sommario :    VFR   VFR Marginale   IFR   IFR Intensivo   IFR Molto Intensivo
Visibilità : 
Base nubi : 
>= 8 km
>= 3000ft
5 / 8 km
1000 / 3000 ft
1500m / 5 km
500 / 1000 ft
800 / 1500m
200 / 500 ft
< 800m
< 200 ft
Simboli :   Temporali  Nebbia  Neve Forte  Precipitazioni Forti  Vento > 20 kt






- Altitudine del aeroporto : 534 ft
- Codice IATA : PQI


KPQI - Northern Maine Regional Arpt At Presque Isle

ULTIMO METAR :
  • 171156Z AUTO 32007KT 9SM -SN OVC027 M06/M09 A3001 RMK AO2 WSHFT 1043 SLP196 P0000 60000 T10611089 11011 21061 53035

METARs OBSOLETI :
  • 171103Z AUTO 34016KT 9SM -SN BKN019 BKN026 OVC033 M05/M08 A2997 RMK AO2 WSHFT 1043 PRESRR P0000
  • 171056Z AUTO 34018G25KT 8SM -SN BKN019 BKN027 OVC033 M04/M08 A2996 RMK AO2 WSHFT 1037 SNB50 SLP179 P0000 T10441078
  • 171033Z AUTO 24011G14KT 10SM BKN029 OVC090 M02/M05 A2992 RMK AO2
  • 170956Z AUTO 22009KT 9SM OVC090 M01/M05 A2991 RMK AO2 SLP162 T10111050
  • 170856Z AUTO 20006KT 10SM FEW033 OVC095 M03/M06 A2990 RMK AO2 SLP159 60000 T10281056 55006

TAF KPQI
Valido dal 17 a 12 ore il 18 a 12 ore UTC


171147Z 1712/1812 33010G18KT 6SM -SHSN OVC028
FM171500 33008G15KT P6SM -SHSN BKN040
FM171900 33008G15KT P6SM SCT050
FM172300 VRB02KT P6SM FEW100
FM181000 VRB02KT P6SM BKN220



MetMap, La meteo Aeronautica in un colpo d'occhio ! - Copyright ORBIFLY Dicembre 2007 - Disclaimer

ORBIFLY MET'MAP TEAM :

Programmazione e sviluppo : Alexandra Zaïnal
Concezione : Baudouin d'Aumeries
Aiuto per la programmazione : Marc-Olivier Méhu
Supporto tecnico e logistico : Manuel Goepfert
Aiuto per la traduzione : Arnaldo La Scala

Contatto : metmap@orbifly.com




FONTI E CREDITI :

   NOAA